Terminal Aerodrome Forecast
Issued by NWS Caribou, ME

Current Version | Previous Version | Text Only | Print | Product List | Glossary On
Versions: 1 2 3 4 5 6 7 8 9 10 11 12 13 14 15 16 17 18 19
000 FTUS41 KCAR 271618 AAB TAFCAR TAF AMD KCAR 271618Z 2716/2812 01016G27KT 1/2SM SN BLSN OVC005 FM272300 02018G30KT 3/4SM -SN BLSN OVC007 FM280200 36015G28KT 1 1/2SM -SN BLSN OVC008=

USA.gov is the U.S. government's official web portal to all federal, state and local government web resources and services.